sensor_id;sensor_type;location;lat;lon;timestamp;P1;durP1;ratioP1;P2;durP2;ratioP2
72109;SDS011;59983;52.010;5.420;2022-07-22T00:00:48;17.70;;;5.03;;
72109;SDS011;59983;52.010;5.420;2022-07-22T00:03:14;10.55;;;4.95;;
72109;SDS011;59983;52.010;5.420;2022-07-22T00:05:41;8.73;;;4.88;;
72109;SDS011;59983;52.010;5.420;2022-07-22T00:08:07;6.88;;;4.82;;
72109;SDS011;59983;52.010;5.420;2022-07-22T00:10:34;8.27;;;4.60;;
72109;SDS011;59983;52.010;5.420;2022-07-22T00:13:00;10.50;;;4.63;;
72109;SDS011;59983;52.010;5.420;2022-07-22T00:15:27;9.25;;;5.38;;
72109;SDS011;59983;52.010;5.420;2022-07-22T00:17:54;9.05;;;4.68;;
72109;SDS011;59983;52.010;5.420;2022-07-22T00:20:21;10.65;;;5.28;;
72109;SDS011;59983;52.010;5.420;2022-07-22T00:22:47;9.60;;;4.40;;
72109;SDS011;59983;52.010;5.420;2022-07-22T00:25:14;6.18;;;3.92;;
72109;SDS011;59983;52.010;5.420;2022-07-22T00:27:41;6.28;;;4.75;;
72109;SDS011;59983;52.010;5.420;2022-07-22T00:30:07;8.90;;;4.13;;
72109;SDS011;59983;52.010;5.420;2022-07-22T00:32:35;7.43;;;4.93;;
72109;SDS011;59983;52.010;5.420;2022-07-22T00:35:02;8.30;;;5.07;;
72109;SDS011;59983;52.010;5.420;2022-07-22T00:37:29;11.65;;;4.75;;
72109;SDS011;59983;52.010;5.420;2022-07-22T00:39:55;8.43;;;4.90;;
72109;SDS011;59983;52.010;5.420;2022-07-22T00:42:22;10.90;;;4.78;;
72109;SDS011;59983;52.010;5.420;2022-07-22T00:44:49;10.93;;;4.45;;
72109;SDS011;59983;52.010;5.420;2022-07-22T00:47:16;11.83;;;4.80;;
72109;SDS011;59983;52.010;5.420;2022-07-22T00:49:42;10.40;;;4.63;;
72109;SDS011;59983;52.010;5.420;2022-07-22T00:52:09;11.32;;;5.13;;
72109;SDS011;59983;52.010;5.420;2022-07-22T00:54:36;7.50;;;4.53;;
72109;SDS011;59983;52.010;5.420;2022-07-22T00:57:03;7.35;;;4.88;;
72109;SDS011;59983;52.010;5.420;2022-07-22T00:59:30;7.93;;;5.10;;
72109;SDS011;59983;52.010;5.420;2022-07-22T01:01:57;8.05;;;5.00;;
72109;SDS011;59983;52.010;5.420;2022-07-22T01:04:23;5.15;;;4.50;;
72109;SDS011;59983;52.010;5.420;2022-07-22T01:06:50;7.80;;;4.10;;
72109;SDS011;59983;52.010;5.420;2022-07-22T01:09:17;4.82;;;4.05;;
72109;SDS011;59983;52.010;5.420;2022-07-22T01:11:43;11.00;;;4.40;;
72109;SDS011;59983;52.010;5.420;2022-07-22T01:14:10;6.30;;;3.83;;
72109;SDS011;59983;52.010;5.420;2022-07-22T01:16:36;4.38;;;3.97;;
72109;SDS011;59983;52.010;5.420;2022-07-22T01:19:03;5.95;;;4.18;;
72109;SDS011;59983;52.010;5.420;2022-07-22T01:21:30;9.20;;;4.53;;
72109;SDS011;59983;52.010;5.420;2022-07-22T01:23:57;4.83;;;3.57;;
72109;SDS011;59983;52.010;5.420;2022-07-22T01:26:24;8.90;;;3.33;;
72109;SDS011;59983;52.010;5.420;2022-07-22T01:28:51;12.85;;;4.28;;
72109;SDS011;59983;52.010;5.420;2022-07-22T01:31:18;4.97;;;3.15;;
72109;SDS011;59983;52.010;5.420;2022-07-22T01:33:44;3.92;;;3.50;;
72109;SDS011;59983;52.010;5.420;2022-07-22T01:36:11;6.27;;;3.17;;
72109;SDS011;59983;52.010;5.420;2022-07-22T01:38:38;6.50;;;3.30;;
72109;SDS011;59983;52.010;5.420;2022-07-22T01:41:05;5.43;;;3.63;;
72109;SDS011;59983;52.010;5.420;2022-07-22T01:43:32;6.72;;;2.90;;
72109;SDS011;59983;52.010;5.420;2022-07-22T01:45:59;7.72;;;4.32;;
72109;SDS011;59983;52.010;5.420;2022-07-22T01:48:26;4.30;;;3.50;;
72109;SDS011;59983;52.010;5.420;2022-07-22T01:50:52;6.90;;;3.83;;
72109;SDS011;59983;52.010;5.420;2022-07-22T01:53:19;4.65;;;3.53;;
72109;SDS011;59983;52.010;5.420;2022-07-22T01:55:46;8.20;;;3.65;;
72109;SDS011;59983;52.010;5.420;2022-07-22T01:58:12;9.07;;;3.30;;
72109;SDS011;59983;52.010;5.420;2022-07-22T02:00:39;5.03;;;3.67;;
72109;SDS011;59983;52.010;5.420;2022-07-22T02:03:06;4.80;;;3.17;;
72109;SDS011;59983;52.010;5.420;2022-07-22T02:05:33;5.88;;;3.63;;
72109;SDS011;59983;52.010;5.420;2022-07-22T02:08:01;6.40;;;3.50;;
72109;SDS011;59983;52.010;5.420;2022-07-22T02:10:29;6.00;;;4.22;;
72109;SDS011;59983;52.010;5.420;2022-07-22T02:12:57;9.07;;;4.37;;
72109;SDS011;59983;52.010;5.420;2022-07-22T02:15:25;5.68;;;4.10;;
72109;SDS011;59983;52.010;5.420;2022-07-22T02:17:52;5.07;;;4.15;;
72109;SDS011;59983;52.010;5.420;2022-07-22T02:20:20;12.88;;;4.20;;
72109;SDS011;59983;52.010;5.420;2022-07-22T02:22:46;9.00;;;3.95;;
72109;SDS011;59983;52.010;5.420;2022-07-22T02:25:13;9.17;;;4.40;;
72109;SDS011;59983;52.010;5.420;2022-07-22T02:27:39;6.22;;;5.03;;
72109;SDS011;59983;52.010;5.420;2022-07-22T02:30:07;4.50;;;4.10;;
72109;SDS011;59983;52.010;5.420;2022-07-22T02:32:35;7.00;;;3.80;;
72109;SDS011;59983;52.010;5.420;2022-07-22T02:35:02;9.68;;;4.45;;
72109;SDS011;59983;52.010;5.420;2022-07-22T02:37:29;5.23;;;4.47;;
72109;SDS011;59983;52.010;5.420;2022-07-22T02:45:26;12.93;;;4.63;;
72109;SDS011;59983;52.010;5.420;2022-07-22T02:47:54;9.90;;;4.30;;
72109;SDS011;59983;52.010;5.420;2022-07-22T02:50:21;11.50;;;4.53;;
72109;SDS011;59983;52.010;5.420;2022-07-22T02:52:49;6.15;;;4.40;;
72109;SDS011;59983;52.010;5.420;2022-07-22T02:55:16;5.55;;;4.93;;
72109;SDS011;59983;52.010;5.420;2022-07-22T02:57:43;7.50;;;4.50;;
72109;SDS011;59983;52.010;5.420;2022-07-22T03:00:10;6.63;;;4.30;;
72109;SDS011;59983;52.010;5.420;2022-07-22T03:02:38;6.97;;;3.80;;
72109;SDS011;59983;52.010;5.420;2022-07-22T03:05:06;7.85;;;4.10;;
72109;SDS011;59983;52.010;5.420;2022-07-22T03:07:32;5.82;;;3.75;;
72109;SDS011;59983;52.010;5.420;2022-07-22T03:09:59;8.88;;;3.53;;
72109;SDS011;59983;52.010;5.420;2022-07-22T03:12:28;5.32;;;4.15;;
72109;SDS011;59983;52.010;5.420;2022-07-22T03:14:54;9.23;;;4.37;;
72109;SDS011;59983;52.010;5.420;2022-07-22T03:17:21;9.48;;;4.07;;
72109;SDS011;59983;52.010;5.420;2022-07-22T03:19:47;4.65;;;3.88;;
72109;SDS011;59983;52.010;5.420;2022-07-22T03:22:14;10.55;;;3.85;;
72109;SDS011;59983;52.010;5.420;2022-07-22T03:24:40;6.28;;;4.07;;
72109;SDS011;59983;52.010;5.420;2022-07-22T03:27:07;4.63;;;3.90;;
72109;SDS011;59983;52.010;5.420;2022-07-22T03:29:34;6.88;;;4.03;;
72109;SDS011;59983;52.010;5.420;2022-07-22T03:32:00;4.57;;;4.18;;
72109;SDS011;59983;52.010;5.420;2022-07-22T03:34:27;5.90;;;3.80;;
72109;SDS011;59983;52.010;5.420;2022-07-22T03:36:53;7.07;;;3.97;;
72109;SDS011;59983;52.010;5.420;2022-07-22T03:39:20;4.10;;;3.80;;
72109;SDS011;59983;52.010;5.420;2022-07-22T03:41:46;4.03;;;3.65;;
72109;SDS011;59983;52.010;5.420;2022-07-22T03:44:13;5.72;;;4.18;;
72109;SDS011;59983;52.010;5.420;2022-07-22T03:46:39;7.65;;;4.55;;
72109;SDS011;59983;52.010;5.420;2022-07-22T03:49:06;9.35;;;4.20;;
72109;SDS011;59983;52.010;5.420;2022-07-22T03:51:32;6.33;;;3.93;;
72109;SDS011;59983;52.010;5.420;2022-07-22T03:54:00;7.63;;;4.13;;
72109;SDS011;59983;52.010;5.420;2022-07-22T03:56:26;6.30;;;4.60;;
72109;SDS011;59983;52.010;5.420;2022-07-22T03:58:53;4.50;;;3.95;;
72109;SDS011;59983;52.010;5.420;2022-07-22T04:01:20;8.65;;;4.55;;
72109;SDS011;59983;52.010;5.420;2022-07-22T04:03:46;8.03;;;3.90;;
72109;SDS011;59983;52.010;5.420;2022-07-22T04:06:15;7.40;;;3.78;;
72109;SDS011;59983;52.010;5.420;2022-07-22T04:08:42;5.93;;;4.43;;
72109;SDS011;59983;52.010;5.420;2022-07-22T04:11:09;5.80;;;3.50;;
72109;SDS011;59983;52.010;5.420;2022-07-22T04:13:35;4.25;;;3.88;;
72109;SDS011;59983;52.010;5.420;2022-07-22T04:16:02;5.70;;;4.43;;
72109;SDS011;59983;52.010;5.420;2022-07-22T04:18:32;7.93;;;3.40;;
72109;SDS011;59983;52.010;5.420;2022-07-22T04:20:59;4.85;;;4.18;;
72109;SDS011;59983;52.010;5.420;2022-07-22T04:23:26;7.78;;;3.42;;
72109;SDS011;59983;52.010;5.420;2022-07-22T04:25:52;8.18;;;4.15;;
72109;SDS011;59983;52.010;5.420;2022-07-22T04:28:19;7.67;;;3.50;;
72109;SDS011;59983;52.010;5.420;2022-07-22T04:30:45;3.53;;;3.28;;
72109;SDS011;59983;52.010;5.420;2022-07-22T04:33:12;10.40;;;3.92;;
72109;SDS011;59983;52.010;5.420;2022-07-22T04:35:38;8.43;;;4.63;;
72109;SDS011;59983;52.010;5.420;2022-07-22T04:38:05;9.15;;;4.22;;
72109;SDS011;59983;52.010;5.420;2022-07-22T04:40:31;4.37;;;3.13;;
72109;SDS011;59983;52.010;5.420;2022-07-22T04:42:58;5.68;;;3.42;;
72109;SDS011;59983;52.010;5.420;2022-07-22T04:45:25;5.82;;;3.83;;
72109;SDS011;59983;52.010;5.420;2022-07-22T04:47:51;10.15;;;4.10;;
72109;SDS011;59983;52.010;5.420;2022-07-22T04:50:18;6.30;;;3.50;;
72109;SDS011;59983;52.010;5.420;2022-07-22T04:52:44;6.97;;;3.80;;
72109;SDS011;59983;52.010;5.420;2022-07-22T04:55:15;4.53;;;3.75;;
72109;SDS011;59983;52.010;5.420;2022-07-22T04:57:42;5.05;;;3.70;;
72109;SDS011;59983;52.010;5.420;2022-07-22T05:00:09;6.85;;;4.85;;
72109;SDS011;59983;52.010;5.420;2022-07-22T05:02:35;6.53;;;3.75;;
72109;SDS011;59983;52.010;5.420;2022-07-22T05:05:02;6.13;;;3.17;;
72109;SDS011;59983;52.010;5.420;2022-07-22T05:07:29;4.10;;;3.35;;
72109;SDS011;59983;52.010;5.420;2022-07-22T05:09:55;4.20;;;3.63;;
72109;SDS011;59983;52.010;5.420;2022-07-22T05:12:22;3.92;;;3.35;;
72109;SDS011;59983;52.010;5.420;2022-07-22T05:14:48;4.10;;;3.80;;
72109;SDS011;59983;52.010;5.420;2022-07-22T05:17:15;3.10;;;2.90;;
72109;SDS011;59983;52.010;5.420;2022-07-22T05:19:41;5.10;;;3.45;;
72109;SDS011;59983;52.010;5.420;2022-07-22T05:22:08;4.75;;;3.35;;
72109;SDS011;59983;52.010;5.420;2022-07-22T05:24:35;4.38;;;3.22;;
72109;SDS011;59983;52.010;5.420;2022-07-22T05:27:02;7.28;;;3.60;;
72109;SDS011;59983;52.010;5.420;2022-07-22T05:29:29;5.23;;;3.13;;
72109;SDS011;59983;52.010;5.420;2022-07-22T05:31:56;4.13;;;2.92;;
72109;SDS011;59983;52.010;5.420;2022-07-22T05:34:22;3.53;;;2.72;;
72109;SDS011;59983;52.010;5.420;2022-07-22T05:36:49;3.00;;;2.80;;
72109;SDS011;59983;52.010;5.420;2022-07-22T05:39:16;4.85;;;3.40;;
72109;SDS011;59983;52.010;5.420;2022-07-22T05:41:43;3.30;;;2.70;;
72109;SDS011;59983;52.010;5.420;2022-07-22T05:44:09;3.65;;;2.65;;
72109;SDS011;59983;52.010;5.420;2022-07-22T05:46:36;4.65;;;3.10;;
72109;SDS011;59983;52.010;5.420;2022-07-22T05:49:02;2.97;;;2.67;;
72109;SDS011;59983;52.010;5.420;2022-07-22T05:51:29;3.72;;;3.10;;
72109;SDS011;59983;52.010;5.420;2022-07-22T05:53:56;5.00;;;2.87;;
72109;SDS011;59983;52.010;5.420;2022-07-22T05:56:23;3.17;;;2.85;;
72109;SDS011;59983;52.010;5.420;2022-07-22T05:58:49;5.03;;;3.40;;
72109;SDS011;59983;52.010;5.420;2022-07-22T06:01:16;4.50;;;3.22;;
72109;SDS011;59983;52.010;5.420;2022-07-22T06:03:42;3.75;;;3.30;;
72109;SDS011;59983;52.010;5.420;2022-07-22T06:06:09;2.67;;;2.47;;
72109;SDS011;59983;52.010;5.420;2022-07-22T06:08:36;4.80;;;3.55;;
72109;SDS011;59983;52.010;5.420;2022-07-22T06:11:03;4.90;;;3.08;;
72109;SDS011;59983;52.010;5.420;2022-07-22T06:13:30;4.28;;;3.20;;
72109;SDS011;59983;52.010;5.420;2022-07-22T06:15:57;4.78;;;2.78;;
72109;SDS011;59983;52.010;5.420;2022-07-22T06:18:24;3.07;;;2.77;;
72109;SDS011;59983;52.010;5.420;2022-07-22T06:20:51;4.00;;;2.47;;
72109;SDS011;59983;52.010;5.420;2022-07-22T06:23:18;5.22;;;2.78;;
72109;SDS011;59983;52.010;5.420;2022-07-22T06:25:44;3.10;;;2.45;;
72109;SDS011;59983;52.010;5.420;2022-07-22T06:28:11;4.38;;;2.42;;
72109;SDS011;59983;52.010;5.420;2022-07-22T06:30:38;9.37;;;2.60;;
72109;SDS011;59983;52.010;5.420;2022-07-22T06:33:05;4.32;;;2.88;;
72109;SDS011;59983;52.010;5.420;2022-07-22T06:35:33;3.75;;;2.67;;
72109;SDS011;59983;52.010;5.420;2022-07-22T06:38:00;3.45;;;2.83;;
72109;SDS011;59983;52.010;5.420;2022-07-22T06:40:32;2.42;;;2.33;;
72109;SDS011;59983;52.010;5.420;2022-07-22T06:43:00;2.57;;;2.37;;
72109;SDS011;59983;52.010;5.420;2022-07-22T06:45:27;2.92;;;2.50;;
72109;SDS011;59983;52.010;5.420;2022-07-22T06:47:54;2.58;;;2.38;;
72109;SDS011;59983;52.010;5.420;2022-07-22T06:50:21;2.45;;;2.22;;
72109;SDS011;59983;52.010;5.420;2022-07-22T06:52:49;2.92;;;2.72;;
72109;SDS011;59983;52.010;5.420;2022-07-22T06:55:16;4.17;;;2.50;;
72109;SDS011;59983;52.010;5.420;2022-07-22T06:57:42;3.42;;;3.10;;
72109;SDS011;59983;52.010;5.420;2022-07-22T07:00:09;4.63;;;3.00;;
72109;SDS011;59983;52.010;5.420;2022-07-22T07:02:36;3.10;;;2.78;;
72109;SDS011;59983;52.010;5.420;2022-07-22T07:05:03;3.05;;;2.35;;
72109;SDS011;59983;52.010;5.420;2022-07-22T07:07:30;4.90;;;2.00;;
72109;SDS011;59983;52.010;5.420;2022-07-22T07:09:58;6.93;;;2.67;;
72109;SDS011;59983;52.010;5.420;2022-07-22T07:12:25;2.75;;;2.20;;
72109;SDS011;59983;52.010;5.420;2022-07-22T07:14:52;2.75;;;2.55;;
72109;SDS011;59983;52.010;5.420;2022-07-22T07:17:39;2.47;;;2.15;;
72109;SDS011;59983;52.010;5.420;2022-07-22T07:20:06;2.87;;;2.67;;
72109;SDS011;59983;52.010;5.420;2022-07-22T07:22:33;2.75;;;2.53;;
72109;SDS011;59983;52.010;5.420;2022-07-22T07:25:07;2.92;;;2.65;;
72109;SDS011;59983;52.010;5.420;2022-07-22T07:27:49;3.03;;;2.33;;
72109;SDS011;59983;52.010;5.420;2022-07-22T07:30:19;3.33;;;2.58;;
72109;SDS011;59983;52.010;5.420;2022-07-22T07:32:46;2.43;;;2.23;;
72109;SDS011;59983;52.010;5.420;2022-07-22T07:35:13;3.50;;;1.80;;
72109;SDS011;59983;52.010;5.420;2022-07-22T07:37:39;4.50;;;1.80;;
72109;SDS011;59983;52.010;5.420;2022-07-22T07:40:06;4.38;;;2.03;;
72109;SDS011;59983;52.010;5.420;2022-07-22T07:42:34;3.05;;;2.10;;
72109;SDS011;59983;52.010;5.420;2022-07-22T07:45:10;7.40;;;2.10;;
72109;SDS011;59983;52.010;5.420;2022-07-22T07:47:37;2.20;;;2.00;;
72109;SDS011;59983;52.010;5.420;2022-07-22T07:50:05;3.50;;;1.98;;
72109;SDS011;59983;52.010;5.420;2022-07-22T07:52:39;4.93;;;1.80;;
72109;SDS011;59983;52.010;5.420;2022-07-22T07:55:16;3.35;;;2.35;;
72109;SDS011;59983;52.010;5.420;2022-07-22T07:57:45;2.07;;;1.80;;
72109;SDS011;59983;52.010;5.420;2022-07-22T08:00:17;2.78;;;1.83;;
72109;SDS011;59983;52.010;5.420;2022-07-22T08:02:47;2.28;;;1.80;;
72109;SDS011;59983;52.010;5.420;2022-07-22T08:05:14;2.08;;;1.75;;
72109;SDS011;59983;52.010;5.420;2022-07-22T08:07:42;4.15;;;1.77;;
72109;SDS011;59983;52.010;5.420;2022-07-22T08:10:08;2.40;;;1.60;;
72109;SDS011;59983;52.010;5.420;2022-07-22T08:12:56;2.63;;;2.38;;
72109;SDS011;59983;52.010;5.420;2022-07-22T08:15:27;1.73;;;1.63;;
72109;SDS011;59983;52.010;5.420;2022-07-22T08:17:56;2.80;;;2.28;;
72109;SDS011;59983;52.010;5.420;2022-07-22T08:20:24;1.60;;;1.50;;
72109;SDS011;59983;52.010;5.420;2022-07-22T08:22:52;1.83;;;1.70;;
72109;SDS011;59983;52.010;5.420;2022-07-22T08:25:19;3.45;;;1.88;;
72109;SDS011;59983;52.010;5.420;2022-07-22T08:27:46;2.28;;;1.95;;
72109;SDS011;59983;52.010;5.420;2022-07-22T08:30:13;2.03;;;1.88;;
72109;SDS011;59983;52.010;5.420;2022-07-22T08:32:40;2.85;;;2.50;;
72109;SDS011;59983;52.010;5.420;2022-07-22T08:35:07;2.33;;;1.90;;
72109;SDS011;59983;52.010;5.420;2022-07-22T08:37:35;4.20;;;2.40;;
72109;SDS011;59983;52.010;5.420;2022-07-22T08:40:02;2.78;;;2.00;;
72109;SDS011;59983;52.010;5.420;2022-07-22T08:42:31;5.32;;;1.77;;
72109;SDS011;59983;52.010;5.420;2022-07-22T08:44:59;2.63;;;2.03;;
72109;SDS011;59983;52.010;5.420;2022-07-22T08:47:31;2.27;;;1.77;;
72109;SDS011;59983;52.010;5.420;2022-07-22T08:50:08;2.58;;;1.48;;
72109;SDS011;59983;52.010;5.420;2022-07-22T08:52:35;5.65;;;2.15;;
72109;SDS011;59983;52.010;5.420;2022-07-22T08:55:06;2.42;;;2.03;;
72109;SDS011;59983;52.010;5.420;2022-07-22T08:57:33;2.50;;;1.88;;
72109;SDS011;59983;52.010;5.420;2022-07-22T09:00:02;2.10;;;1.90;;
72109;SDS011;59983;52.010;5.420;2022-07-22T09:02:36;3.08;;;2.03;;
72109;SDS011;59983;52.010;5.420;2022-07-22T09:05:05;4.15;;;2.38;;
72109;SDS011;59983;52.010;5.420;2022-07-22T09:07:56;3.60;;;2.58;;
72109;SDS011;59983;52.010;5.420;2022-07-22T09:10:30;2.28;;;2.10;;
72109;SDS011;59983;52.010;5.420;2022-07-22T09:12:58;3.23;;;2.17;;
72109;SDS011;59983;52.010;5.420;2022-07-22T09:15:33;2.25;;;1.90;;
72109;SDS011;59983;52.010;5.420;2022-07-22T09:18:07;6.50;;;2.30;;
72109;SDS011;59983;52.010;5.420;2022-07-22T09:20:34;6.40;;;2.22;;
72109;SDS011;59983;52.010;5.420;2022-07-22T09:23:08;2.05;;;1.95;;
72109;SDS011;59983;52.010;5.420;2022-07-22T09:25:37;2.80;;;1.93;;
72109;SDS011;59983;52.010;5.420;2022-07-22T09:30:34;2.10;;;1.90;;
72109;SDS011;59983;52.010;5.420;2022-07-22T09:33:23;1.80;;;1.70;;
72109;SDS011;59983;52.010;5.420;2022-07-22T09:35:50;2.45;;;1.73;;
72109;SDS011;59983;52.010;5.420;2022-07-22T09:38:18;2.63;;;2.10;;
72109;SDS011;59983;52.010;5.420;2022-07-22T09:40:52;1.85;;;1.60;;
72109;SDS011;59983;52.010;5.420;2022-07-22T09:43:20;1.95;;;1.85;;
72109;SDS011;59983;52.010;5.420;2022-07-22T09:45:57;5.05;;;2.05;;
72109;SDS011;59983;52.010;5.420;2022-07-22T09:48:25;4.82;;;1.63;;
72109;SDS011;59983;52.010;5.420;2022-07-22T09:50:53;2.03;;;1.83;;
72109;SDS011;59983;52.010;5.420;2022-07-22T09:53:22;2.33;;;2.10;;
72109;SDS011;59983;52.010;5.420;2022-07-22T09:55:51;5.63;;;1.90;;
72109;SDS011;59983;52.010;5.420;2022-07-22T09:58:17;1.52;;;1.30;;
72109;SDS011;59983;52.010;5.420;2022-07-22T10:00:44;3.50;;;1.60;;
72109;SDS011;59983;52.010;5.420;2022-07-22T10:03:12;4.00;;;2.13;;
72109;SDS011;59983;52.010;5.420;2022-07-22T10:05:43;2.25;;;1.83;;
72109;SDS011;59983;52.010;5.420;2022-07-22T10:08:10;2.17;;;2.00;;
72109;SDS011;59983;52.010;5.420;2022-07-22T10:10:37;8.27;;;2.47;;
72109;SDS011;59983;52.010;5.420;2022-07-22T10:13:06;2.58;;;2.10;;
72109;SDS011;59983;52.010;5.420;2022-07-22T10:15:34;4.03;;;2.40;;
72109;SDS011;59983;52.010;5.420;2022-07-22T10:18:03;3.20;;;2.00;;
72109;SDS011;59983;52.010;5.420;2022-07-22T10:20:33;2.95;;;2.20;;
72109;SDS011;59983;52.010;5.420;2022-07-22T10:23:06;3.60;;;2.00;;
72109;SDS011;59983;52.010;5.420;2022-07-22T10:31:07;3.95;;;2.53;;
72109;SDS011;59983;52.010;5.420;2022-07-22T10:33:40;4.88;;;2.10;;
72109;SDS011;59983;52.010;5.420;2022-07-22T10:36:07;3.22;;;2.03;;
72109;SDS011;59983;52.010;5.420;2022-07-22T10:38:35;2.00;;;1.73;;
72109;SDS011;59983;52.010;5.420;2022-07-22T10:41:02;5.97;;;2.03;;
72109;SDS011;59983;52.010;5.420;2022-07-22T10:46:09;3.92;;;2.10;;
72109;SDS011;59983;52.010;5.420;2022-07-22T10:58:42;2.28;;;1.98;;
72109;SDS011;59983;52.010;5.420;2022-07-22T11:01:10;2.15;;;1.95;;
72109;SDS011;59983;52.010;5.420;2022-07-22T11:03:40;3.40;;;2.10;;
72109;SDS011;59983;52.010;5.420;2022-07-22T11:06:15;6.10;;;3.13;;
72109;SDS011;59983;52.010;5.420;2022-07-22T11:08:44;4.40;;;2.20;;
72109;SDS011;59983;52.010;5.420;2022-07-22T11:11:12;2.50;;;1.70;;
72109;SDS011;59983;52.010;5.420;2022-07-22T11:13:40;3.78;;;1.60;;
72109;SDS011;59983;52.010;5.420;2022-07-22T11:16:17;2.03;;;1.80;;
72109;SDS011;59983;52.010;5.420;2022-07-22T11:18:51;3.40;;;1.90;;
72109;SDS011;59983;52.010;5.420;2022-07-22T11:21:22;3.20;;;1.80;;
72109;SDS011;59983;52.010;5.420;2022-07-22T11:23:51;5.47;;;1.35;;
72109;SDS011;59983;52.010;5.420;2022-07-22T11:26:24;3.85;;;1.98;;
72109;SDS011;59983;52.010;5.420;2022-07-22T11:28:57;2.55;;;1.50;;
72109;SDS011;59983;52.010;5.420;2022-07-22T11:31:25;1.93;;;1.40;;
72109;SDS011;59983;52.010;5.420;2022-07-22T11:33:51;1.63;;;1.23;;
72109;SDS011;59983;52.010;5.420;2022-07-22T11:36:18;1.58;;;1.40;;
72109;SDS011;59983;52.010;5.420;2022-07-22T11:38:46;2.08;;;1.63;;
72109;SDS011;59983;52.010;5.420;2022-07-22T11:41:18;2.25;;;1.35;;
72109;SDS011;59983;52.010;5.420;2022-07-22T11:43:46;5.20;;;2.10;;
72109;SDS011;59983;52.010;5.420;2022-07-22T11:46:15;4.00;;;1.60;;
72109;SDS011;59983;52.010;5.420;2022-07-22T11:48:43;3.22;;;1.23;;
72109;SDS011;59983;52.010;5.420;2022-07-22T11:51:11;4.38;;;1.70;;
72109;SDS011;59983;52.010;5.420;2022-07-22T11:53:46;4.65;;;1.50;;
72109;SDS011;59983;52.010;5.420;2022-07-22T11:56:13;1.53;;;1.30;;
72109;SDS011;59983;52.010;5.420;2022-07-22T11:58:44;2.58;;;1.70;;
72109;SDS011;59983;52.010;5.420;2022-07-22T12:01:16;2.17;;;1.55;;
72109;SDS011;59983;52.010;5.420;2022-07-22T12:03:44;2.83;;;1.58;;
72109;SDS011;59983;52.010;5.420;2022-07-22T12:06:13;3.67;;;1.77;;
72109;SDS011;59983;52.010;5.420;2022-07-22T12:08:42;5.27;;;1.83;;
72109;SDS011;59983;52.010;5.420;2022-07-22T12:11:13;1.70;;;1.30;;
72109;SDS011;59983;52.010;5.420;2022-07-22T12:13:42;3.22;;;1.40;;
72109;SDS011;59983;52.010;5.420;2022-07-22T12:16:17;3.67;;;1.42;;
72109;SDS011;59983;52.010;5.420;2022-07-22T12:18:50;3.17;;;1.50;;
72109;SDS011;59983;52.010;5.420;2022-07-22T12:21:18;3.13;;;1.50;;
72109;SDS011;59983;52.010;5.420;2022-07-22T12:23:51;2.95;;;1.27;;
72109;SDS011;59983;52.010;5.420;2022-07-22T12:26:47;2.80;;;1.40;;
72109;SDS011;59983;52.010;5.420;2022-07-22T12:29:28;2.40;;;1.30;;
72109;SDS011;59983;52.010;5.420;2022-07-22T12:31:57;2.47;;;1.70;;
72109;SDS011;59983;52.010;5.420;2022-07-22T12:37:17;1.60;;;1.50;;
72109;SDS011;59983;52.010;5.420;2022-07-22T12:42:21;3.20;;;1.83;;
72109;SDS011;59983;52.010;5.420;2022-07-22T12:44:52;4.30;;;1.40;;
72109;SDS011;59983;52.010;5.420;2022-07-22T12:50:30;3.40;;;1.60;;
72109;SDS011;59983;52.010;5.420;2022-07-22T12:53:03;4.18;;;1.65;;
72109;SDS011;59983;52.010;5.420;2022-07-22T12:55:43;3.30;;;1.25;;
72109;SDS011;59983;52.010;5.420;2022-07-22T12:58:12;5.90;;;1.50;;
72109;SDS011;59983;52.010;5.420;2022-07-22T13:00:42;4.43;;;1.93;;
72109;SDS011;59983;52.010;5.420;2022-07-22T13:03:10;2.40;;;1.60;;
72109;SDS011;59983;52.010;5.420;2022-07-22T13:05:37;4.15;;;1.75;;
72109;SDS011;59983;52.010;5.420;2022-07-22T13:08:04;2.65;;;1.73;;
72109;SDS011;59983;52.010;5.420;2022-07-22T13:10:34;2.67;;;1.75;;
72109;SDS011;59983;52.010;5.420;2022-07-22T13:13:01;2.57;;;1.60;;
72109;SDS011;59983;52.010;5.420;2022-07-22T13:15:28;2.38;;;1.40;;
72109;SDS011;59983;52.010;5.420;2022-07-22T13:17:55;3.05;;;1.77;;
72109;SDS011;59983;52.010;5.420;2022-07-22T13:20:21;3.97;;;2.40;;
72109;SDS011;59983;52.010;5.420;2022-07-22T13:22:49;3.28;;;2.00;;
72109;SDS011;59983;52.010;5.420;2022-07-22T13:25:16;2.80;;;2.30;;
72109;SDS011;59983;52.010;5.420;2022-07-22T13:27:43;2.33;;;1.75;;
72109;SDS011;59983;52.010;5.420;2022-07-22T13:30:10;2.55;;;1.70;;
72109;SDS011;59983;52.010;5.420;2022-07-22T13:32:38;3.42;;;2.10;;
72109;SDS011;59983;52.010;5.420;2022-07-22T13:35:14;5.25;;;2.25;;
72109;SDS011;59983;52.010;5.420;2022-07-22T13:37:41;3.73;;;2.00;;
72109;SDS011;59983;52.010;5.420;2022-07-22T13:40:08;2.40;;;1.90;;
72109;SDS011;59983;52.010;5.420;2022-07-22T13:42:35;2.75;;;2.10;;
72109;SDS011;59983;52.010;5.420;2022-07-22T13:45:02;3.95;;;2.38;;
72109;SDS011;59983;52.010;5.420;2022-07-22T13:47:31;2.42;;;2.20;;
72109;SDS011;59983;52.010;5.420;2022-07-22T13:49:57;2.80;;;2.50;;
72109;SDS011;59983;52.010;5.420;2022-07-22T13:52:24;2.60;;;2.38;;
72109;SDS011;59983;52.010;5.420;2022-07-22T13:54:51;2.90;;;2.70;;
72109;SDS011;59983;52.010;5.420;2022-07-22T13:57:17;2.63;;;2.40;;
72109;SDS011;59983;52.010;5.420;2022-07-22T13:59:45;4.93;;;2.78;;
72109;SDS011;59983;52.010;5.420;2022-07-22T14:02:11;5.23;;;2.70;;
72109;SDS011;59983;52.010;5.420;2022-07-22T14:04:38;2.90;;;2.65;;
72109;SDS011;59983;52.010;5.420;2022-07-22T14:07:06;3.35;;;2.97;;
72109;SDS011;59983;52.010;5.420;2022-07-22T14:09:37;3.63;;;3.10;;
72109;SDS011;59983;52.010;5.420;2022-07-22T14:12:04;4.55;;;2.92;;
72109;SDS011;59983;52.010;5.420;2022-07-22T14:14:31;3.53;;;2.80;;
72109;SDS011;59983;52.010;5.420;2022-07-22T14:16:57;4.07;;;2.78;;
72109;SDS011;59983;52.010;5.420;2022-07-22T14:19:25;6.20;;;3.15;;
72109;SDS011;59983;52.010;5.420;2022-07-22T14:21:52;4.85;;;3.08;;
72109;SDS011;59983;52.010;5.420;2022-07-22T14:24:18;4.93;;;3.22;;
72109;SDS011;59983;52.010;5.420;2022-07-22T14:26:46;4.83;;;3.70;;
72109;SDS011;59983;52.010;5.420;2022-07-22T14:29:13;3.47;;;3.15;;
72109;SDS011;59983;52.010;5.420;2022-07-22T14:31:39;3.83;;;3.53;;
72109;SDS011;59983;52.010;5.420;2022-07-22T14:34:06;4.18;;;3.78;;
72109;SDS011;59983;52.010;5.420;2022-07-22T14:36:32;6.28;;;3.05;;
72109;SDS011;59983;52.010;5.420;2022-07-22T14:38:59;3.67;;;3.37;;
72109;SDS011;59983;52.010;5.420;2022-07-22T14:41:26;3.30;;;3.10;;
72109;SDS011;59983;52.010;5.420;2022-07-22T14:43:52;3.42;;;3.13;;
72109;SDS011;59983;52.010;5.420;2022-07-22T14:46:19;6.80;;;3.08;;
72109;SDS011;59983;52.010;5.420;2022-07-22T14:48:46;5.97;;;3.45;;
72109;SDS011;59983;52.010;5.420;2022-07-22T14:51:14;4.07;;;2.90;;
72109;SDS011;59983;52.010;5.420;2022-07-22T14:53:41;3.40;;;3.05;;
72109;SDS011;59983;52.010;5.420;2022-07-22T14:56:07;6.22;;;3.28;;
72109;SDS011;59983;52.010;5.420;2022-07-22T14:58:34;4.82;;;3.33;;
72109;SDS011;59983;52.010;5.420;2022-07-22T15:01:00;3.95;;;3.55;;
72109;SDS011;59983;52.010;5.420;2022-07-22T15:03:27;5.50;;;3.67;;
72109;SDS011;59983;52.010;5.420;2022-07-22T15:05:53;5.85;;;3.20;;
72109;SDS011;59983;52.010;5.420;2022-07-22T15:08:20;5.25;;;4.05;;
72109;SDS011;59983;52.010;5.420;2022-07-22T15:10:47;3.75;;;3.45;;
72109;SDS011;59983;52.010;5.420;2022-07-22T15:13:14;4.35;;;3.95;;
72109;SDS011;59983;52.010;5.420;2022-07-22T15:15:40;7.73;;;3.80;;
72109;SDS011;59983;52.010;5.420;2022-07-22T15:18:07;9.02;;;3.83;;
72109;SDS011;59983;52.010;5.420;2022-07-22T15:20:34;5.90;;;3.67;;
72109;SDS011;59983;52.010;5.420;2022-07-22T15:23:01;3.78;;;3.47;;
72109;SDS011;59983;52.010;5.420;2022-07-22T15:25:28;3.58;;;3.22;;
72109;SDS011;59983;52.010;5.420;2022-07-22T15:27:54;3.63;;;3.33;;